createdAt,value
2019-06-01T00:01:10.109Z,20.70
2019-06-01T00:04:00.559Z,22.35
2019-06-01T00:06:30.144Z,21.30
2019-06-01T00:08:59.655Z,18.20
2019-06-01T00:11:29.256Z,18.63
2019-06-01T00:14:00.209Z,19.92
2019-06-01T00:16:29.723Z,17.10
2019-06-01T00:18:59.235Z,20.77
2019-06-01T00:21:28.772Z,19.48
2019-06-01T00:23:59.416Z,20.57
2019-06-01T00:26:31.265Z,21.30
2019-06-01T00:29:01.389Z,17.87
2019-06-01T00:31:30.959Z,18.95
2019-06-01T00:34:00.667Z,19.40
2019-06-01T00:36:31.223Z,26.27
2019-06-01T00:39:00.727Z,22.98
2019-06-01T00:41:31.691Z,23.10
2019-06-01T00:44:01.199Z,22.02
2019-06-01T00:46:30.711Z,28.62
2019-06-01T00:49:00.218Z,25.68
2019-06-01T00:51:29.744Z,32.98
2019-06-01T00:53:59.249Z,32.42
2019-06-01T00:56:30.198Z,27.60
2019-06-01T00:58:59.757Z,23.15
2019-06-01T01:01:30.319Z,23.42
2019-06-01T01:03:59.840Z,28.15
2019-06-01T01:06:29.263Z,26.77
2019-06-01T01:08:58.848Z,25.60
2019-06-01T01:11:31.609Z,20.35
2019-06-01T01:14:01.300Z,30.82
2019-06-01T01:16:30.832Z,21.07
2019-06-01T01:19:00.388Z,17.90
2019-06-01T01:21:29.980Z,19.17
2019-06-01T01:23:59.476Z,16.07
2019-06-01T01:26:29.006Z,15.25
2019-06-01T01:28:58.548Z,18.62
2019-06-01T01:31:29.128Z,16.90
2019-06-01T01:33:58.808Z,18.75
2019-06-01T01:36:28.289Z,19.77
2019-06-01T01:38:58.439Z,23.67
2019-06-01T01:41:30.372Z,24.75
2019-06-01T01:43:59.871Z,21.33
2019-06-01T01:46:29.332Z,22.47
2019-06-01T01:48:58.884Z,19.55
2019-06-01T01:51:28.345Z,25.90
2019-06-01T01:53:58.785Z,23.67
2019-06-01T01:56:28.412Z,25.02
2019-06-01T01:58:58.657Z,24.72
2019-06-01T02:01:28.112Z,24.32
2019-06-01T02:03:59.137Z,28.80
2019-06-01T02:06:29.298Z,26.12
2019-06-01T02:08:59.402Z,30.57
2019-06-01T02:11:28.990Z,36.50
2019-06-01T02:13:59.793Z,32.30
2019-06-01T02:16:29.555Z,28.27
2019-06-01T02:19:00.442Z,27.37
2019-06-01T02:21:30.148Z,25.68
2019-06-01T02:24:01.065Z,28.98
2019-06-01T02:26:30.716Z,25.52
2019-06-01T02:29:01.481Z,26.42
2019-06-01T02:31:41.728Z,25.65
2019-06-01T02:34:05.859Z,27.27
2019-06-01T02:36:34.715Z,32.03
2019-06-01T02:39:23.585Z,30.25
2019-06-01T02:41:54.788Z,26.52
2019-06-01T02:44:24.246Z,19.17
2019-06-01T02:46:55.374Z,23.20
2019-06-01T02:49:25.033Z,20.95
2019-06-01T02:51:55.087Z,23.03
2019-06-01T02:54:25.661Z,17.12
2019-06-01T02:56:55.841Z,19.60
2019-06-01T02:59:25.466Z,19.57
2019-06-01T03:02:01.393Z,32.03
2019-06-01T03:04:27.889Z,30.72
2019-06-01T03:06:59.547Z,23.10
2019-06-01T03:09:30.056Z,29.70
2019-06-01T03:14:33.845Z,33.42
2019-06-01T03:17:05.903Z,29.60
2019-06-01T03:19:38.601Z,38.30
2019-06-01T03:22:10.285Z,31.12
2019-06-01T03:24:39.842Z,32.70
2019-06-01T03:27:12.481Z,23.57
2019-06-01T03:29:46.222Z,28.30
2019-06-01T03:32:33.719Z,30.25
2019-06-01T03:34:46.831Z,27.15
2019-06-01T03:37:17.459Z,23.87
2019-06-01T03:39:47.193Z,23.90
2019-06-01T03:42:17.275Z,25.27
2019-06-01T03:44:46.840Z,23.85
2019-06-01T03:47:16.300Z,25.70
2019-06-01T03:49:45.798Z,23.90
2019-06-01T03:52:15.248Z,24.10
2019-06-01T03:54:44.731Z,22.95
2019-06-01T03:57:14.194Z,23.43
2019-06-01T03:59:43.700Z,28.47
2019-06-01T04:02:13.282Z,28.30
2019-06-01T04:04:42.791Z,28.90
2019-06-01T04:07:12.521Z,27.57
2019-06-01T04:09:41.912Z,25.77
2019-06-01T04:12:11.977Z,26.43
2019-06-01T04:14:41.691Z,27.13
2019-06-01T04:17:12.242Z,27.42
2019-06-01T04:19:42.811Z,24.43
2019-06-01T04:22:13.843Z,31.20
2019-06-01T04:24:44.377Z,27.37
2019-06-01T04:27:13.874Z,25.48
2019-06-01T04:29:43.350Z,29.25
2019-06-01T04:32:12.970Z,24.25
2019-06-01T04:34:42.378Z,22.05
2019-06-01T04:37:11.857Z,27.02
2019-06-01T04:39:41.362Z,26.73
2019-06-01T04:42:11.869Z,29.57
2019-06-01T04:44:41.498Z,26.85
2019-06-01T04:47:10.948Z,32.08
2019-06-01T04:49:40.685Z,31.40
2019-06-01T04:52:11.903Z,29.80
2019-06-01T04:54:41.266Z,45.35
2019-06-01T04:57:11.026Z,37.53
2019-06-01T04:59:40.507Z,32.05
2019-06-01T05:02:11.480Z,34.27
2019-06-01T05:04:43.637Z,42.55
2019-06-01T05:07:13.523Z,38.90
2019-06-01T05:09:43.071Z,38.83
2019-06-01T05:12:13.645Z,39.20
2019-06-01T05:14:43.239Z,45.17
2019-06-01T05:17:25.166Z,41.20
2019-06-01T05:19:54.643Z,36.95
2019-06-01T05:22:25.945Z,38.55
2019-06-01T05:24:55.462Z,44.23
2019-06-01T05:27:25.070Z,35.33
2019-06-01T05:29:55.963Z,39.35
2019-06-01T05:32:25.447Z,40.95
2019-06-01T05:34:54.990Z,38.75
2019-06-01T05:37:25.579Z,40.00
2019-06-01T05:39:55.084Z,40.70
2019-06-01T05:42:24.541Z,37.63
2019-06-01T05:44:54.041Z,42.78
2019-06-01T05:47:23.505Z,38.30
2019-06-01T05:49:52.972Z,40.50
2019-06-01T05:52:23.043Z,34.20
2019-06-01T05:54:53.629Z,37.35
2019-06-01T05:57:23.333Z,33.25
2019-06-01T05:59:52.771Z,37.23
2019-06-01T06:02:22.298Z,35.63
2019-06-01T06:04:54.202Z,35.68
2019-06-01T06:07:24.849Z,38.80
2019-06-01T06:09:54.344Z,30.55
2019-06-01T06:12:23.910Z,40.70
2019-06-01T06:14:53.426Z,33.35
2019-06-01T06:17:24.334Z,34.10
2019-06-01T06:19:55.130Z,31.02
2019-06-01T06:22:25.626Z,29.10
2019-06-01T06:24:55.089Z,31.40
2019-06-01T06:27:24.671Z,30.67
2019-06-01T06:29:54.155Z,26.45
2019-06-01T06:32:23.664Z,27.70
2019-06-01T06:34:53.143Z,30.17
2019-06-01T06:37:23.798Z,31.77
2019-06-01T06:42:22.346Z,28.38
2019-06-01T06:44:51.879Z,24.92
2019-06-01T06:47:21.397Z,28.47
2019-06-01T06:49:50.847Z,27.15
2019-06-01T06:52:21.478Z,30.08
2019-06-01T06:57:20.152Z,23.32
2019-06-01T06:59:49.747Z,23.90
2019-06-01T07:02:19.247Z,25.12
2019-06-01T07:04:48.784Z,21.75
2019-06-01T07:07:18.269Z,22.65
2019-06-01T07:12:17.646Z,23.27
2019-06-01T07:14:47.102Z,26.52
2019-06-01T07:17:16.649Z,23.97
2019-06-01T07:19:47.235Z,25.35
2019-06-01T07:22:17.241Z,25.13
2019-06-01T07:24:46.879Z,22.75
2019-06-01T07:27:16.316Z,21.55
2019-06-01T07:29:45.839Z,23.70
2019-06-01T07:32:15.291Z,25.77
2019-06-01T07:34:44.722Z,27.45
2019-06-01T07:37:14.186Z,24.47
2019-06-01T07:39:43.695Z,25.57
2019-06-01T07:42:13.181Z,27.65
2019-06-01T07:44:42.636Z,26.57
2019-06-01T07:47:12.132Z,27.27
2019-06-01T07:49:41.584Z,24.35
2019-06-01T07:52:13.286Z,27.17
2019-06-01T07:54:42.336Z,23.73
2019-06-01T07:57:11.730Z,21.87
2019-06-01T07:59:41.164Z,25.12
2019-06-01T08:02:10.792Z,28.03
2019-06-01T08:04:53.364Z,26.33
2019-06-01T08:07:12.462Z,26.40
2019-06-01T08:09:42.023Z,24.65
2019-06-01T08:12:11.571Z,17.73
2019-06-01T08:14:41.118Z,23.90
2019-06-01T08:17:12.222Z,21.17
2019-06-01T08:19:41.611Z,19.27
2019-06-01T08:22:11.141Z,22.37
2019-06-01T08:24:40.602Z,24.25
2019-06-01T08:27:10.157Z,20.90
2019-06-01T08:29:39.560Z,25.68
2019-06-01T08:34:38.614Z,20.35
2019-06-01T08:37:08.342Z,19.82
2019-06-01T08:39:37.788Z,21.23
2019-06-01T08:42:08.406Z,16.65
2019-06-01T08:44:37.872Z,23.32
2019-06-01T08:47:07.419Z,18.90
2019-06-01T08:49:39.594Z,25.97
2019-06-01T08:52:09.094Z,23.92
2019-06-01T08:54:38.529Z,18.75
2019-06-01T08:57:07.997Z,18.40
2019-06-01T08:59:37.411Z,18.40
2019-06-01T09:02:07.711Z,22.37
2019-06-01T09:04:37.237Z,16.50
2019-06-01T09:07:06.728Z,16.70
2019-06-01T09:09:36.181Z,17.95
2019-06-01T09:12:05.971Z,16.03
2019-06-01T09:14:35.645Z,18.70
2019-06-01T09:17:05.866Z,19.48
2019-06-01T09:19:35.748Z,20.65
2019-06-01T09:22:05.563Z,17.48
2019-06-01T09:24:36.201Z,15.23
2019-06-01T09:27:05.865Z,15.18
2019-06-01T09:29:36.204Z,16.25
2019-06-01T09:32:10.825Z,16.55
2019-06-01T09:34:38.032Z,23.57
2019-06-01T09:37:07.583Z,15.63
2019-06-01T09:39:37.398Z,16.17
2019-06-01T09:42:06.962Z,18.27
2019-06-01T09:47:07.028Z,13.58
2019-06-01T09:49:37.891Z,14.97
2019-06-01T09:52:12.622Z,14.28
2019-06-01T09:54:43.468Z,12.73
2019-06-01T09:57:13.090Z,16.17
2019-06-01T09:59:42.606Z,10.50
2019-06-01T10:02:12.174Z,10.47
2019-06-01T10:04:41.648Z,10.80
2019-06-01T10:07:12.014Z,8.90
2019-06-01T10:09:42.168Z,14.28
2019-06-01T10:12:11.872Z,12.25
2019-06-01T10:14:42.442Z,16.57
2019-06-01T10:17:12.156Z,12.45
2019-06-01T10:19:43.037Z,12.85
2019-06-01T10:22:13.496Z,16.67
2019-06-01T10:24:42.989Z,13.28
2019-06-01T10:27:12.481Z,12.80
2019-06-01T10:29:43.091Z,14.50
2019-06-01T10:32:12.841Z,19.12
2019-06-01T10:34:42.348Z,13.85
2019-06-01T10:37:11.976Z,16.27
2019-06-01T10:39:41.449Z,13.00
2019-06-01T10:42:10.933Z,16.90
2019-06-01T10:44:45.223Z,12.30
2019-06-01T10:47:11.595Z,11.73
2019-06-01T10:49:42.105Z,12.07
2019-06-01T10:52:11.797Z,14.63
2019-06-01T10:54:42.361Z,16.05
2019-06-01T10:57:12.110Z,8.93
2019-06-01T10:59:42.621Z,11.63
2019-06-01T11:02:13.510Z,12.50
2019-06-01T11:04:45.641Z,14.43
2019-06-01T11:07:15.151Z,9.63
2019-06-01T11:09:44.581Z,11.40
2019-06-01T11:12:14.001Z,13.57
2019-06-01T11:14:43.475Z,17.73
2019-06-01T11:17:12.920Z,12.97
2019-06-01T11:19:43.743Z,11.03
2019-06-01T11:22:16.077Z,14.68
2019-06-01T11:24:45.497Z,12.68
2019-06-01T11:27:15.059Z,15.73
2019-06-01T11:29:51.053Z,11.90
2019-06-01T11:32:15.628Z,10.25
2019-06-01T11:34:57.280Z,10.07
2019-06-01T11:37:27.329Z,8.40
2019-06-01T11:39:56.869Z,10.03
2019-06-01T11:42:26.305Z,9.47
2019-06-01T11:44:55.835Z,11.33
2019-06-01T11:47:25.459Z,8.75
2019-06-01T11:49:54.963Z,10.23
2019-06-01T11:52:24.450Z,11.83
2019-06-01T11:54:54.078Z,14.47
2019-06-01T11:57:23.539Z,12.60
2019-06-01T11:59:53.052Z,11.12
2019-06-01T12:02:22.562Z,7.08
2019-06-01T12:04:52.136Z,9.45
2019-06-01T12:07:21.594Z,7.85
2019-06-01T12:09:51.088Z,8.30
2019-06-01T12:12:20.550Z,9.33
2019-06-01T12:14:50.034Z,15.20
2019-06-01T12:17:19.508Z,11.80
2019-06-01T12:19:49.320Z,10.20
2019-06-01T12:22:18.795Z,10.80
2019-06-01T12:24:48.296Z,14.35
2019-06-01T12:29:47.862Z,5.85
2019-06-01T12:32:17.523Z,10.18
2019-06-01T12:34:48.507Z,7.50
2019-06-01T12:37:34.515Z,13.13
2019-06-01T12:39:52.142Z,14.33
2019-06-01T12:42:20.502Z,8.75
2019-06-01T12:44:52.147Z,7.35
2019-06-01T12:47:22.910Z,7.67
2019-06-01T12:49:55.590Z,11.93
2019-06-01T12:52:25.053Z,11.75
2019-06-01T12:54:54.506Z,7.70
2019-06-01T12:57:25.600Z,10.32
2019-06-01T12:59:56.189Z,8.08
2019-06-01T13:02:25.640Z,9.60
2019-06-01T13:04:55.197Z,7.67
2019-06-01T13:07:24.742Z,6.15
2019-06-01T13:09:54.294Z,6.35
2019-06-01T13:12:23.822Z,10.40
2019-06-01T13:14:53.296Z,9.55
2019-06-01T13:17:22.800Z,14.80
2019-06-01T13:19:52.276Z,6.42
2019-06-01T13:22:21.770Z,7.30
2019-06-01T13:24:52.046Z,5.37
2019-06-01T13:27:21.679Z,8.15
2019-06-01T13:29:52.280Z,4.97
2019-06-01T13:32:23.128Z,8.13
2019-06-01T13:34:53.625Z,7.03
2019-06-01T13:37:23.255Z,6.28
2019-06-01T13:39:57.957Z,8.40
2019-06-01T13:42:23.820Z,10.63
2019-06-01T13:44:53.699Z,13.93
2019-06-01T13:47:23.259Z,7.28
2019-06-01T13:49:54.032Z,5.85
2019-06-01T13:52:23.704Z,4.60
2019-06-01T13:54:53.490Z,4.67
2019-06-01T13:57:24.058Z,3.85
2019-06-01T13:59:54.900Z,3.33
2019-06-01T14:02:24.477Z,4.85
2019-06-01T14:04:54.252Z,7.97
2019-06-01T14:07:24.023Z,8.08
2019-06-01T14:09:53.773Z,4.90
2019-06-01T14:14:53.598Z,5.25
2019-06-01T14:17:23.160Z,7.92
2019-06-01T14:19:55.914Z,4.58
2019-06-01T14:22:26.701Z,5.72
2019-06-01T14:25:10.373Z,4.60
2019-06-01T14:27:29.666Z,4.83
2019-06-01T14:29:59.157Z,5.80
2019-06-01T14:32:29.607Z,5.67
2019-06-01T14:34:59.083Z,3.83
2019-06-01T14:37:28.517Z,6.97
2019-06-01T14:39:58.077Z,7.50
2019-06-01T14:42:27.621Z,4.62
2019-06-01T14:44:58.136Z,9.88
2019-06-01T14:47:27.703Z,6.30
2019-06-01T14:49:58.079Z,19.23
2019-06-01T14:52:27.626Z,6.60
2019-06-01T14:54:58.128Z,5.47
2019-06-01T14:57:28.914Z,4.95
2019-06-01T14:59:59.899Z,6.42
2019-06-01T15:02:29.403Z,6.50
2019-06-01T15:04:59.863Z,5.00
2019-06-01T15:07:29.408Z,5.45
2019-06-01T15:09:59.020Z,4.45
2019-06-01T15:12:28.497Z,7.10
2019-06-01T15:14:57.997Z,9.03
2019-06-01T15:17:27.499Z,10.63
2019-06-01T15:19:58.198Z,8.23
2019-06-01T15:22:27.920Z,5.40
2019-06-01T15:24:58.460Z,4.03
2019-06-01T15:27:28.006Z,4.33
2019-06-01T15:29:58.881Z,3.83
2019-06-01T15:32:28.643Z,4.45
2019-06-01T15:34:59.919Z,8.85
2019-06-01T15:37:30.346Z,4.45
2019-06-01T15:39:59.797Z,2.47
2019-06-01T15:42:32.614Z,5.53
2019-06-01T15:45:02.573Z,5.40
2019-06-01T15:47:32.383Z,9.03
2019-06-01T15:50:02.614Z,4.83
2019-06-01T15:52:32.242Z,5.50
2019-06-01T15:55:02.878Z,6.00
2019-06-01T15:57:32.494Z,5.60
2019-06-01T16:00:03.088Z,4.95
2019-06-01T16:02:34.066Z,6.15
2019-06-01T16:05:07.608Z,7.42
2019-06-01T16:07:37.204Z,9.23
2019-06-01T16:10:08.786Z,5.65
2019-06-01T16:12:38.535Z,6.28
2019-06-01T16:15:09.230Z,4.58
2019-06-01T16:17:38.835Z,5.30
2019-06-01T16:20:09.429Z,5.85
2019-06-01T16:22:39.263Z,4.85
2019-06-01T16:25:09.059Z,8.68
2019-06-01T16:27:38.551Z,4.90
2019-06-01T16:30:09.459Z,5.08
2019-06-01T16:32:39.881Z,8.00
2019-06-01T16:35:10.058Z,6.22
2019-06-01T16:37:39.696Z,10.25
2019-06-01T16:40:10.796Z,8.75
2019-06-01T16:42:40.546Z,7.03
2019-06-01T16:45:12.815Z,5.87
2019-06-01T16:47:42.245Z,7.10
2019-06-01T16:50:12.311Z,4.25
2019-06-01T16:52:42.004Z,8.85
2019-06-01T16:55:12.501Z,6.42
2019-06-01T16:57:42.022Z,5.62
2019-06-01T17:00:14.973Z,5.87
2019-06-01T17:02:44.549Z,6.10
2019-06-01T17:05:15.061Z,9.60
2019-06-01T17:07:44.580Z,5.60
2019-06-01T17:10:25.896Z,5.60
2019-06-01T17:12:46.642Z,7.90
2019-06-01T17:15:18.905Z,5.37
2019-06-01T17:17:48.490Z,5.72
2019-06-01T17:20:51.671Z,4.60
2019-06-01T17:23:26.732Z,10.40
2019-06-01T17:25:53.073Z,7.05
2019-06-01T17:28:23.752Z,9.95
2019-06-01T17:30:53.591Z,10.28
2019-06-01T17:33:23.257Z,7.58
2019-06-01T17:35:52.768Z,7.45
2019-06-01T17:38:22.170Z,8.35
2019-06-01T17:40:51.770Z,11.40
2019-06-01T17:43:21.337Z,8.60
2019-06-01T17:45:50.870Z,8.78
2019-06-01T17:48:26.513Z,5.87
2019-06-01T17:50:54.622Z,6.80
2019-06-01T17:53:25.816Z,10.35
2019-06-01T17:55:55.472Z,7.35
2019-06-01T17:58:25.380Z,7.37
2019-06-01T18:00:55.028Z,13.05
2019-06-01T18:03:27.602Z,9.63
2019-06-01T18:05:57.185Z,9.40
2019-06-01T18:08:26.808Z,10.55
2019-06-01T18:10:56.325Z,6.40
2019-06-01T18:13:25.920Z,10.30
2019-06-01T18:15:55.629Z,11.90
2019-06-01T18:18:25.058Z,12.40
2019-06-01T18:20:54.638Z,12.70
2019-06-01T18:23:24.536Z,11.40
2019-06-01T18:28:25.693Z,10.78
2019-06-01T18:30:55.193Z,6.53
2019-06-01T18:33:24.985Z,5.00
2019-06-01T18:35:54.449Z,4.85
2019-06-01T18:38:23.937Z,4.90
2019-06-01T18:41:06.528Z,5.67
2019-06-01T18:43:24.603Z,4.92
2019-06-01T18:45:54.227Z,4.47
2019-06-01T18:48:26.712Z,7.30
2019-06-01T18:50:56.218Z,6.90
2019-06-01T18:53:26.212Z,5.13
2019-06-01T18:55:55.866Z,5.60
2019-06-01T18:58:25.630Z,4.92
2019-06-01T19:00:56.651Z,6.25
2019-06-01T19:03:26.141Z,5.40
2019-06-01T19:05:57.103Z,5.47
2019-06-01T19:08:27.442Z,3.58
2019-06-01T19:10:57.041Z,5.65
2019-06-01T19:13:28.149Z,5.95
2019-06-01T19:15:57.686Z,10.37
2019-06-01T19:18:27.186Z,6.83
2019-06-01T19:20:56.635Z,5.33
2019-06-01T19:23:27.381Z,5.12
2019-06-01T19:25:56.957Z,3.85
2019-06-01T19:28:26.558Z,4.05
2019-06-01T19:30:56.102Z,4.57
2019-06-01T19:33:26.145Z,6.70
2019-06-01T19:35:57.235Z,4.28
2019-06-01T19:38:28.976Z,5.20
2019-06-01T19:40:58.612Z,5.80
2019-06-01T19:43:28.176Z,6.08
2019-06-01T19:45:57.924Z,4.90
2019-06-01T19:48:28.947Z,6.47
2019-06-01T19:51:00.529Z,3.55
2019-06-01T19:53:30.001Z,6.65
2019-06-01T19:55:59.599Z,5.20
2019-06-01T19:58:29.297Z,6.50
2019-06-01T20:00:58.795Z,5.30
2019-06-01T20:03:28.366Z,5.05
2019-06-01T20:05:57.857Z,6.20
2019-06-01T20:08:27.351Z,9.08
2019-06-01T20:10:56.809Z,7.40
2019-06-01T20:13:26.459Z,6.53
2019-06-01T20:15:58.011Z,6.92
2019-06-01T20:18:27.582Z,6.85
2019-06-01T20:20:57.245Z,4.73
2019-06-01T20:23:26.977Z,5.47
2019-06-01T20:25:56.607Z,6.63
2019-06-01T20:28:27.341Z,7.28
2019-06-01T20:30:56.921Z,7.13
2019-06-01T20:33:31.987Z,7.90
2019-06-01T20:36:02.574Z,8.25
2019-06-01T20:38:32.859Z,9.05
2019-06-01T20:41:02.444Z,11.28
2019-06-01T20:43:31.926Z,9.50
2019-06-01T20:46:02.068Z,10.00
2019-06-01T20:48:31.684Z,8.88
2019-06-01T20:51:01.379Z,13.37
2019-06-01T20:53:30.963Z,11.57
2019-06-01T20:56:00.638Z,11.63
2019-06-01T20:58:30.718Z,9.53
2019-06-01T21:01:01.745Z,10.63
2019-06-01T21:03:31.439Z,10.78
2019-06-01T21:06:00.947Z,10.93
2019-06-01T21:08:30.471Z,10.60
2019-06-01T21:11:00.028Z,11.90
2019-06-01T21:13:29.675Z,12.28
2019-06-01T21:15:59.206Z,12.37
2019-06-01T21:18:28.652Z,10.78
2019-06-01T21:20:58.215Z,12.27
2019-06-01T21:23:27.650Z,13.48
2019-06-01T21:25:57.447Z,11.27
2019-06-01T21:28:27.024Z,11.38
2019-06-01T21:30:56.584Z,12.20
2019-06-01T21:33:28.717Z,9.75
2019-06-01T21:35:58.162Z,17.52
2019-06-01T21:38:27.834Z,15.28
2019-06-01T21:40:57.403Z,12.13
2019-06-01T21:43:34.998Z,12.05
2019-06-01T21:45:58.084Z,15.38
2019-06-01T21:48:27.541Z,10.68
2019-06-01T21:50:57.055Z,11.80
2019-06-01T21:53:26.709Z,14.03
2019-06-01T21:55:56.256Z,9.03
2019-06-01T21:58:27.374Z,10.82
2019-06-01T22:00:56.915Z,12.10
2019-06-01T22:03:27.361Z,13.08
2019-06-01T22:05:57.021Z,10.10
2019-06-01T22:08:27.600Z,14.18
2019-06-01T22:10:57.478Z,11.80
2019-06-01T22:13:28.592Z,11.87
2019-06-01T22:15:58.350Z,12.20
2019-06-01T22:18:27.994Z,11.83
2019-06-01T22:20:58.511Z,13.22
2019-06-01T22:23:28.246Z,12.65
2019-06-01T22:25:57.834Z,13.57
2019-06-01T22:28:28.473Z,11.38
2019-06-01T22:30:59.013Z,10.93
2019-06-01T22:33:28.842Z,12.07
2019-06-01T22:35:58.453Z,11.65
2019-06-01T22:38:27.995Z,14.60
2019-06-01T22:40:57.483Z,22.40
2019-06-01T22:43:43.418Z,14.10
2019-06-01T22:45:58.308Z,12.05
2019-06-01T22:48:29.193Z,12.60
2019-06-01T22:50:58.770Z,13.72
2019-06-01T22:53:28.407Z,11.10
2019-06-01T22:55:58.095Z,12.80
2019-06-01T22:58:27.810Z,10.78
2019-06-01T23:00:57.299Z,13.80
2019-06-01T23:03:28.100Z,11.55
2019-06-01T23:05:57.743Z,12.53
2019-06-01T23:08:27.403Z,10.78
2019-06-01T23:10:57.114Z,16.03
2019-06-01T23:13:26.581Z,9.88
2019-06-01T23:15:58.443Z,10.72
2019-06-01T23:18:28.046Z,7.08
2019-06-01T23:20:58.600Z,9.93
2019-06-01T23:23:28.171Z,9.53
2019-06-01T23:25:57.764Z,12.60
2019-06-01T23:28:28.593Z,11.00
2019-06-01T23:30:58.265Z,11.75
2019-06-01T23:33:28.790Z,11.18
2019-06-01T23:35:58.441Z,14.07
2019-06-01T23:38:28.707Z,9.48
2019-06-01T23:40:58.382Z,10.43
2019-06-01T23:43:28.872Z,13.45
2019-06-01T23:45:58.557Z,10.80
2019-06-01T23:48:29.217Z,10.58
2019-06-01T23:50:58.849Z,9.53
2019-06-01T23:53:29.490Z,11.60
2019-06-01T23:58:28.108Z,11.57
